Terminal Aerodrome Forecast
Issued by NWS Wichita, KS

Home | Current Version | Previous Version | Graphics & Text | Print | Product List | Glossary On
Versions: 1 2 3 4 5 6 7 8 9 10 11 12
000
FTUS43 KICT 010520
TAFICT
TAF
KICT 010520Z 0106/0206 16009KT P6SM SKC
     FM011600 18015G22KT P6SM SKC
     FM020100 15009KT P6SM SCT200=

USA.gov is the U.S. government's official web portal to all federal, state and local government web resources and services.